createdAt,value
2018-07-21T00:00:40.392Z,95058.33
2018-07-21T00:03:10.295Z,95056.76
2018-07-21T00:05:40.162Z,95062.97
2018-07-21T00:08:09.933Z,95058.09
2018-07-21T00:10:39.859Z,95064.60
2018-07-21T00:13:09.735Z,95062.66
2018-07-21T00:15:39.502Z,95055.65
2018-07-21T00:18:15.886Z,95061.63
2018-07-21T00:20:45.747Z,95068.51
2018-07-21T00:23:15.683Z,95069.00
2018-07-21T00:25:45.473Z,95072.69
2018-07-21T00:28:15.303Z,95069.17
2018-07-21T00:30:45.228Z,95071.02
2018-07-21T00:33:15.165Z,95069.83
2018-07-21T00:35:44.923Z,95067.90
2018-07-21T00:38:14.656Z,95072.63
2018-07-21T00:40:44.499Z,95069.17
2018-07-21T00:43:14.296Z,95070.20
2018-07-21T00:45:44.107Z,95070.12
2018-07-21T00:48:13.896Z,95072.20
2018-07-21T00:50:43.860Z,95066.97
2018-07-21T00:53:13.716Z,95069.85
2018-07-21T00:55:43.672Z,95070.05
2018-07-21T00:58:13.516Z,95076.11
2018-07-21T01:00:43.472Z,95080.61
2018-07-21T01:03:13.333Z,95075.44
2018-07-21T01:05:43.187Z,95074.69
2018-07-21T01:08:12.979Z,95074.11
2018-07-21T01:10:42.787Z,95078.14
2018-07-21T01:13:12.631Z,95073.12
2018-07-21T01:15:42.544Z,95073.93
2018-07-21T01:18:12.435Z,95084.32
2018-07-21T01:20:42.251Z,95084.73
2018-07-21T01:23:12.138Z,95084.64
2018-07-21T01:25:42.062Z,95086.77
2018-07-21T01:28:11.924Z,95077.91
2018-07-21T01:30:41.946Z,95079.08
2018-07-21T01:33:11.860Z,95075.84
2018-07-21T01:35:41.643Z,95072.97
2018-07-21T01:38:11.556Z,95073.26
2018-07-21T01:40:41.352Z,95071.93
2018-07-21T01:43:11.170Z,95070.76
2018-07-21T01:45:41.034Z,95070.23
2018-07-21T01:48:10.850Z,95067.38
2018-07-21T01:50:40.660Z,95064.02
2018-07-21T01:53:10.535Z,95074.41
2018-07-21T01:55:40.358Z,95070.52
2018-07-21T01:58:10.175Z,95069.38
2018-07-21T02:00:40.044Z,95065.72
2018-07-21T02:03:09.923Z,95071.75
2018-07-21T02:05:39.780Z,95072.17
2018-07-21T02:08:09.671Z,95076.81
2018-07-21T02:10:39.565Z,95070.62
2018-07-21T02:13:09.380Z,95069.42
2018-07-21T02:15:39.175Z,95064.92
2018-07-21T02:18:09.159Z,95071.27
2018-07-21T02:20:38.956Z,95074.19
2018-07-21T02:23:08.783Z,95082.51
2018-07-21T02:25:38.710Z,95078.37
2018-07-21T02:28:08.605Z,95069.47
2018-07-21T02:30:38.458Z,95071.77
2018-07-21T02:33:08.380Z,95074.88
2018-07-21T02:35:38.396Z,95074.94
2018-07-21T02:38:08.256Z,95082.70
2018-07-21T02:40:38.036Z,95083.09
2018-07-21T02:43:07.877Z,95090.58
2018-07-21T02:45:37.772Z,95081.53
2018-07-21T02:48:07.667Z,95093.06
2018-07-21T02:50:37.463Z,95087.66
2018-07-21T02:53:07.345Z,95088.88
2018-07-21T02:55:37.300Z,95094.58
2018-07-21T02:58:07.112Z,95093.00
2018-07-21T03:00:36.935Z,95085.06
2018-07-21T03:03:06.793Z,95087.23
2018-07-21T03:05:36.672Z,95092.23
2018-07-21T03:08:06.688Z,95087.94
2018-07-21T03:10:36.565Z,95094.20
2018-07-21T03:13:06.396Z,95088.50
2018-07-21T03:15:36.279Z,95093.39
2018-07-21T03:18:06.119Z,95090.34
2018-07-21T03:20:35.944Z,95093.68
2018-07-21T03:23:05.869Z,95091.44
2018-07-21T03:25:36.762Z,95094.67
2018-07-21T03:28:06.716Z,95092.91
2018-07-21T03:30:36.585Z,95098.73
2018-07-21T03:33:06.691Z,95097.06
2018-07-21T03:35:36.459Z,95103.36
2018-07-21T03:38:06.520Z,95098.88
2018-07-21T03:40:36.427Z,95105.53
2018-07-21T03:43:06.277Z,95100.75
2018-07-21T03:45:36.101Z,95098.50
2018-07-21T03:48:06.019Z,95097.73
2018-07-21T03:50:35.871Z,95099.65
2018-07-21T03:53:06.085Z,95097.88
2018-07-21T03:55:35.907Z,95097.36
2018-07-21T03:58:05.758Z,95110.46
2018-07-21T04:00:35.615Z,95104.16
2018-07-21T04:03:05.452Z,95106.59
2018-07-21T04:05:35.445Z,95104.75
2018-07-21T04:08:05.302Z,95111.59
2018-07-21T04:10:35.190Z,95109.23
2018-07-21T04:13:05.065Z,95113.22
2018-07-21T04:15:34.907Z,95118.30
2018-07-21T04:18:04.749Z,95117.89
2018-07-21T04:20:34.568Z,95114.04
2018-07-21T04:23:04.503Z,95123.87
2018-07-21T04:25:34.335Z,95117.88
2018-07-21T04:28:04.236Z,95124.50
2018-07-21T04:30:34.037Z,95117.34
2018-07-21T04:33:03.846Z,95121.76
2018-07-21T04:35:33.722Z,95116.94
2018-07-21T04:38:03.547Z,95118.33
2018-07-21T04:40:33.338Z,95120.83
2018-07-21T04:43:03.163Z,95118.06
2018-07-21T04:45:33.044Z,95117.72
2018-07-21T04:48:02.883Z,95118.27
2018-07-21T04:50:32.712Z,95122.53
2018-07-21T04:53:02.591Z,95123.67
2018-07-21T04:55:32.501Z,95127.38
2018-07-21T04:58:02.416Z,95126.33
2018-07-21T05:00:32.231Z,95129.55
2018-07-21T05:03:02.012Z,95127.16
2018-07-21T05:05:31.815Z,95128.73
2018-07-21T05:08:01.707Z,95131.48
2018-07-21T05:10:31.508Z,95133.73
2018-07-21T05:13:01.405Z,95139.30
2018-07-21T05:15:31.178Z,95131.56
2018-07-21T05:18:00.964Z,95133.16
2018-07-21T05:20:30.837Z,95137.60
2018-07-21T05:23:00.851Z,95136.11
2018-07-21T05:25:30.729Z,95136.38
2018-07-21T05:28:00.543Z,95131.53
2018-07-21T05:30:30.425Z,95138.59
2018-07-21T05:33:00.321Z,95131.92
2018-07-21T05:35:30.232Z,95138.81
2018-07-21T05:38:00.066Z,95143.56
2018-07-21T05:40:29.968Z,95137.75
2018-07-21T05:42:59.812Z,95145.48
2018-07-21T05:45:29.676Z,95139.39
2018-07-21T05:47:59.588Z,95141.13
2018-07-21T05:50:29.501Z,95142.22
2018-07-21T05:52:59.459Z,95137.97
2018-07-21T05:55:29.383Z,95136.44
2018-07-21T05:57:59.307Z,95138.58
2018-07-21T06:00:29.136Z,95137.24
2018-07-21T06:02:59.020Z,95135.47
2018-07-21T06:05:28.928Z,95133.66
2018-07-21T06:07:58.720Z,95139.16
2018-07-21T06:10:28.513Z,95141.08
2018-07-21T06:12:58.312Z,95142.58
2018-07-21T06:15:28.117Z,95137.14
2018-07-21T06:17:57.989Z,95139.52
2018-07-21T06:20:27.854Z,95137.91
2018-07-21T06:22:57.716Z,95134.81
2018-07-21T06:25:27.503Z,95130.87
2018-07-21T06:27:57.770Z,95134.84
2018-07-21T06:30:27.799Z,95132.67
2018-07-21T06:32:58.046Z,95141.34
2018-07-21T06:35:28.107Z,95142.08
2018-07-21T06:37:58.039Z,95133.30
2018-07-21T06:40:27.871Z,95134.48
2018-07-21T06:42:57.748Z,95131.82
2018-07-21T06:45:27.628Z,95129.47
2018-07-21T06:47:57.463Z,95122.36
2018-07-21T06:50:27.331Z,95123.48
2018-07-21T06:52:57.257Z,95117.48
2018-07-21T06:55:27.131Z,95126.01
2018-07-21T06:57:56.951Z,95122.48
2018-07-21T07:00:26.835Z,95119.54
2018-07-21T07:02:56.633Z,95120.64
2018-07-21T07:05:26.557Z,95115.70
2018-07-21T07:07:56.444Z,95119.80
2018-07-21T07:10:26.352Z,95117.84
2018-07-21T07:12:56.204Z,95119.83
2018-07-21T07:15:26.094Z,95115.89
2018-07-21T07:17:55.863Z,95118.58
2018-07-21T07:20:25.647Z,95118.34
2018-07-21T07:22:55.571Z,95116.06
2018-07-21T07:25:25.314Z,95106.42
2018-07-21T07:27:55.076Z,95105.41
2018-07-21T07:30:24.859Z,95098.61
2018-07-21T07:32:54.811Z,95097.70
2018-07-21T07:35:24.652Z,95105.58
2018-07-21T07:37:54.569Z,95107.12
2018-07-21T07:40:24.480Z,95107.09
2018-07-21T07:42:54.374Z,95100.30
2018-07-21T07:45:24.255Z,95100.39
2018-07-21T07:47:54.313Z,95097.72
2018-07-21T07:50:24.218Z,95104.36
2018-07-21T07:52:54.141Z,95101.02
2018-07-21T07:55:24.051Z,95108.11
2018-07-21T07:57:53.847Z,95097.07
2018-07-21T08:00:23.773Z,95093.95
2018-07-21T08:02:53.590Z,95109.50
2018-07-21T08:05:23.593Z,95112.95
2018-07-21T08:07:53.491Z,95106.14
2018-07-21T08:10:23.335Z,95106.66
2018-07-21T08:12:53.416Z,95107.08
2018-07-21T08:15:23.663Z,95111.53
2018-07-21T08:17:53.546Z,95114.73
2018-07-21T08:20:23.412Z,95126.08
2018-07-21T08:22:53.253Z,95123.19
2018-07-21T08:25:23.115Z,95115.32
2018-07-21T08:27:52.955Z,95133.09
2018-07-21T08:30:22.822Z,95119.27
2018-07-21T08:32:52.630Z,95132.30
2018-07-21T08:35:22.447Z,95145.45
2018-07-21T08:37:52.363Z,95130.89
2018-07-21T08:40:22.159Z,95133.91
2018-07-21T08:42:51.986Z,95141.15
2018-07-21T08:45:21.865Z,95137.79
2018-07-21T08:47:51.717Z,95129.75
2018-07-21T08:50:21.516Z,95138.13
2018-07-21T08:52:51.436Z,95130.45
2018-07-21T08:55:21.274Z,95135.02
2018-07-21T08:57:51.168Z,95128.21
2018-07-21T09:00:21.034Z,95128.12
2018-07-21T09:02:50.964Z,95124.45
2018-07-21T09:05:20.802Z,95117.02
2018-07-21T09:07:50.685Z,95125.19
2018-07-21T09:10:20.624Z,95123.88
2018-07-21T09:12:50.475Z,95125.19
2018-07-21T09:15:20.354Z,95118.66
2018-07-21T09:17:50.160Z,95115.59
2018-07-21T09:20:20.036Z,95113.50
2018-07-21T09:22:49.944Z,95115.84
2018-07-21T09:25:19.728Z,95114.48
2018-07-21T09:27:49.625Z,95122.75
2018-07-21T09:30:19.487Z,95123.91
2018-07-21T09:32:49.302Z,95126.55
2018-07-21T09:35:19.217Z,95124.10
2018-07-21T09:37:49.165Z,95123.17
2018-07-21T09:40:19.146Z,95116.96
2018-07-21T09:42:49.056Z,95117.77
2018-07-21T09:45:18.887Z,95128.39
2018-07-21T09:47:48.730Z,95107.17
2018-07-21T09:50:18.534Z,95111.02
2018-07-21T09:52:48.323Z,95103.97
2018-07-21T09:55:18.144Z,95105.12
2018-07-21T09:57:47.907Z,95094.89
2018-07-21T10:00:22.779Z,95095.69
2018-07-21T10:02:52.684Z,95106.44
2018-07-21T10:05:22.747Z,95106.08
2018-07-21T10:07:52.498Z,95098.23
2018-07-21T10:10:22.417Z,95103.19
2018-07-21T10:12:52.264Z,95097.42
2018-07-21T10:15:22.071Z,95091.02
2018-07-21T10:17:51.918Z,95086.95
2018-07-21T10:20:21.803Z,95092.54
2018-07-21T10:22:51.604Z,95092.88
2018-07-21T10:25:26.555Z,95078.38
2018-07-21T10:28:01.560Z,95091.48
2018-07-21T10:30:31.469Z,95085.34
2018-07-21T10:33:01.429Z,95096.23
2018-07-21T10:35:31.298Z,95091.04
2018-07-21T10:38:01.214Z,95087.02
2018-07-21T10:40:31.152Z,95085.53
2018-07-21T10:43:00.939Z,95080.25
2018-07-21T10:45:30.751Z,95072.36
2018-07-21T10:48:00.587Z,95088.58
2018-07-21T10:50:30.487Z,95081.50
2018-07-21T10:53:00.364Z,95080.56
2018-07-21T10:55:30.288Z,95083.14
2018-07-21T10:58:00.195Z,95082.35
2018-07-21T11:00:30.138Z,95082.09
2018-07-21T11:02:59.927Z,95093.17
2018-07-21T11:05:29.937Z,95081.72
2018-07-21T11:07:59.773Z,95065.77
2018-07-21T11:10:29.626Z,95068.45
2018-07-21T11:12:59.500Z,95082.45
2018-07-21T11:15:29.446Z,95083.18
2018-07-21T11:17:59.406Z,95074.02
2018-07-21T11:20:29.216Z,95077.21
2018-07-21T11:22:59.135Z,95068.39
2018-07-21T11:25:29.008Z,95075.30
2018-07-21T11:27:58.892Z,95066.62
2018-07-21T11:30:28.691Z,95078.08
2018-07-21T11:32:58.411Z,95070.67
2018-07-21T11:35:28.300Z,95077.36
2018-07-21T11:37:58.068Z,95075.92
2018-07-21T11:40:28.043Z,95072.52
2018-07-21T11:42:57.961Z,95067.64
2018-07-21T11:45:27.919Z,95070.51
2018-07-21T11:47:57.816Z,95073.19
2018-07-21T11:50:27.648Z,95063.38
2018-07-21T11:52:57.648Z,95055.84
2018-07-21T11:55:27.479Z,95049.70
2018-07-21T11:57:57.280Z,95070.14
2018-07-21T12:00:27.167Z,95060.28
2018-07-21T12:02:57.053Z,95062.84
2018-07-21T12:05:26.994Z,95053.47
2018-07-21T12:07:56.959Z,95049.23
2018-07-21T12:10:26.880Z,95044.64
2018-07-21T12:12:56.756Z,95044.41
2018-07-21T12:15:26.652Z,95049.16
2018-07-21T12:17:56.523Z,95034.05
2018-07-21T12:20:26.513Z,95033.31
2018-07-21T12:22:56.390Z,95032.31
2018-07-21T12:25:26.426Z,95040.31
2018-07-21T12:27:56.359Z,95021.03
2018-07-21T12:30:26.303Z,95028.76
2018-07-21T12:32:56.205Z,95024.94
2018-07-21T12:35:26.176Z,95030.37
2018-07-21T12:37:55.960Z,95025.11
2018-07-21T12:40:25.751Z,95016.84
2018-07-21T12:42:55.617Z,95018.75
2018-07-21T12:45:25.519Z,95023.80
2018-07-21T12:47:55.431Z,95016.60
2018-07-21T12:50:25.263Z,95016.06
2018-07-21T12:52:55.141Z,95019.84
2018-07-21T12:55:25.004Z,95018.18
2018-07-21T12:57:54.892Z,95016.91
2018-07-21T13:00:24.794Z,95013.69
2018-07-21T13:02:54.651Z,95011.30
2018-07-21T13:05:24.552Z,95012.34
2018-07-21T13:07:54.444Z,95017.67
2018-07-21T13:10:24.328Z,95006.69
2018-07-21T13:12:54.224Z,95012.31
2018-07-21T13:15:24.130Z,95009.66
2018-07-21T13:17:54.034Z,95000.60
2018-07-21T13:20:23.895Z,95000.66
2018-07-21T13:22:53.847Z,94999.88
2018-07-21T13:25:23.757Z,95003.34
2018-07-21T13:27:53.626Z,95007.06
2018-07-21T13:30:23.489Z,94997.95
2018-07-21T13:32:53.352Z,94989.17
2018-07-21T13:35:23.188Z,94996.88
2018-07-21T13:37:53.068Z,94989.42
2018-07-21T13:40:22.947Z,94980.08
2018-07-21T13:42:52.841Z,94977.67
2018-07-21T13:45:22.752Z,94980.91
2018-07-21T13:47:52.599Z,94980.64
2018-07-21T13:50:22.528Z,94979.50
2018-07-21T13:52:52.299Z,94971.52
2018-07-21T13:55:22.156Z,94987.08
2018-07-21T13:57:52.016Z,94986.72
2018-07-21T14:00:21.825Z,94988.41
2018-07-21T14:02:51.726Z,94991.09
2018-07-21T14:05:21.595Z,94989.00
2018-07-21T14:07:51.552Z,94993.28
2018-07-21T14:10:21.420Z,94994.88
2018-07-21T14:12:51.409Z,94985.48
2018-07-21T14:15:21.274Z,94993.23
2018-07-21T14:17:51.291Z,94989.73
2018-07-21T14:20:21.234Z,94989.80
2018-07-21T14:22:51.091Z,94996.23
2018-07-21T14:25:20.971Z,95001.02
2018-07-21T14:27:50.687Z,94988.67
2018-07-21T14:30:20.507Z,95001.02
2018-07-21T14:32:50.355Z,95002.39
2018-07-21T14:35:20.120Z,95000.75
2018-07-21T14:37:49.963Z,94991.32
2018-07-21T14:40:19.930Z,94997.80
2018-07-21T14:42:49.775Z,95001.00
2018-07-21T14:45:19.604Z,94996.20
2018-07-21T14:47:50.020Z,94995.38
2018-07-21T14:50:19.856Z,94998.31
2018-07-21T14:52:49.787Z,94998.33
2018-07-21T14:55:19.711Z,94996.22
2018-07-21T14:57:49.644Z,94996.73
2018-07-21T15:00:19.580Z,94974.18
2018-07-21T15:02:50.041Z,94987.36
2018-07-21T15:05:19.855Z,94991.39
2018-07-21T15:07:49.691Z,94991.38
2018-07-21T15:10:20.955Z,94984.43
2018-07-21T15:12:51.827Z,94984.71
2018-07-21T15:15:21.742Z,94987.63
2018-07-21T15:17:52.023Z,94981.17
2018-07-21T15:20:22.061Z,94980.95
2018-07-21T15:22:51.859Z,94980.42
2018-07-21T15:25:21.751Z,94972.11
2018-07-21T15:27:51.734Z,94984.20
2018-07-21T15:30:21.627Z,94986.03
2018-07-21T15:32:51.439Z,94982.81
2018-07-21T15:35:21.346Z,94984.45
2018-07-21T15:37:51.245Z,94977.47
2018-07-21T15:40:21.117Z,94982.05
2018-07-21T15:42:50.903Z,94983.92
2018-07-21T15:45:20.723Z,94975.08
2018-07-21T15:47:50.659Z,94978.81
2018-07-21T15:50:21.940Z,94975.05
2018-07-21T15:52:51.947Z,94967.54
2018-07-21T15:55:21.987Z,94965.92
2018-07-21T15:57:51.835Z,94973.73
2018-07-21T16:00:27.952Z,94970.23
2018-07-21T16:02:58.926Z,94978.55
2018-07-21T16:05:28.760Z,94976.12
2018-07-21T16:07:58.547Z,94978.80
2018-07-21T16:10:28.339Z,94969.05
2018-07-21T16:12:58.311Z,94976.34
2018-07-21T16:15:28.221Z,94979.34
2018-07-21T16:17:58.247Z,94976.94
2018-07-21T16:20:28.308Z,94973.93
2018-07-21T16:22:58.355Z,94961.88
2018-07-21T16:25:28.189Z,94977.16
2018-07-21T16:27:58.410Z,94977.89
2018-07-21T16:30:29.023Z,94979.04
2018-07-21T16:32:59.719Z,94981.16
2018-07-21T16:35:29.575Z,94984.11
2018-07-21T16:37:59.515Z,94976.32
2018-07-21T16:40:29.452Z,94987.59
2018-07-21T16:42:59.291Z,94980.01
2018-07-21T16:45:29.095Z,94993.52
2018-07-21T16:47:59.106Z,94991.78
2018-07-21T16:50:29.157Z,94998.65
2018-07-21T16:53:00.116Z,95005.08
2018-07-21T16:55:29.914Z,94994.69
2018-07-21T16:57:59.703Z,94999.77
2018-07-21T17:00:29.564Z,94997.84
2018-07-21T17:02:59.437Z,95004.33
2018-07-21T17:05:29.244Z,95000.31
2018-07-21T17:07:59.075Z,94996.83
2018-07-21T17:10:28.932Z,94998.14
2018-07-21T17:12:58.809Z,94999.48
2018-07-21T17:15:28.836Z,95003.53
2018-07-21T17:17:59.004Z,95001.63
2018-07-21T17:20:29.578Z,95008.05
2018-07-21T17:22:59.313Z,95002.97
2018-07-21T17:25:29.216Z,94998.52
2018-07-21T17:27:59.109Z,94997.98
2018-07-21T17:30:29.061Z,95005.05
2018-07-21T17:32:59.193Z,95011.25
2018-07-21T17:35:29.009Z,95008.52
2018-07-21T17:37:58.809Z,95007.33
2018-07-21T17:40:28.571Z,95015.32
2018-07-21T17:42:59.568Z,95012.77
2018-07-21T17:45:29.395Z,95015.72
2018-07-21T17:47:59.308Z,95015.76
2018-07-21T17:50:29.472Z,95011.16
2018-07-21T17:52:59.410Z,95014.65
2018-07-21T17:55:29.249Z,95016.26
2018-07-21T17:57:59.027Z,95019.73
2018-07-21T18:00:29.010Z,95017.55
2018-07-21T18:02:59.811Z,95011.63
2018-07-21T18:05:29.739Z,95014.29
2018-07-21T18:07:59.710Z,95016.12
2018-07-21T18:10:29.815Z,95017.86
2018-07-21T18:12:59.775Z,95014.13
2018-07-21T18:15:29.762Z,95025.30
2018-07-21T18:17:59.608Z,95024.72
2018-07-21T18:20:29.665Z,95025.27
2018-07-21T18:22:59.435Z,95024.76
2018-07-21T18:25:29.393Z,95028.78
2018-07-21T18:27:59.277Z,95020.94
2018-07-21T18:30:29.080Z,95022.23
2018-07-21T18:32:59.171Z,95024.64
2018-07-21T18:35:29.119Z,95031.31
2018-07-21T18:37:58.847Z,95027.47
2018-07-21T18:40:28.798Z,95036.52
2018-07-21T18:42:58.625Z,95039.40
2018-07-21T18:45:29.110Z,95037.26
2018-07-21T18:47:58.946Z,95031.91
2018-07-21T18:50:28.792Z,95035.05
2018-07-21T18:52:58.580Z,95036.86
2018-07-21T18:55:28.623Z,95038.52
2018-07-21T18:57:58.669Z,95036.67
2018-07-21T19:00:28.551Z,95043.40
2018-07-21T19:02:58.460Z,95043.14
2018-07-21T19:05:28.343Z,95047.95
2018-07-21T19:07:58.179Z,95048.48
2018-07-21T19:10:28.019Z,95043.69
2018-07-21T19:12:57.811Z,95051.91
2018-07-21T19:15:32.756Z,95048.70
2018-07-21T19:18:02.611Z,95038.19
2018-07-21T19:20:37.561Z,95033.88
2018-07-21T19:23:07.403Z,95031.72
2018-07-21T19:25:42.401Z,95034.13
2018-07-21T19:28:12.215Z,95037.83
2018-07-21T19:30:42.061Z,95040.50
2018-07-21T19:33:12.048Z,95033.55
2018-07-21T19:35:41.940Z,95032.47
2018-07-21T19:38:11.872Z,95032.68
2018-07-21T19:40:41.795Z,95032.41
2018-07-21T19:43:11.842Z,95033.00
2018-07-21T19:45:41.900Z,95037.54
2018-07-21T19:48:12.072Z,95027.11
2018-07-21T19:50:42.032Z,95025.77
2018-07-21T19:53:11.947Z,95029.48
2018-07-21T19:55:42.035Z,95033.21
2018-07-21T19:58:11.968Z,95028.95
2018-07-21T20:00:42.448Z,95035.61
2018-07-21T20:03:12.259Z,95036.73
2018-07-21T20:05:42.360Z,95049.20
2018-07-21T20:08:12.324Z,95043.53
2018-07-21T20:10:42.196Z,95048.75
2018-07-21T20:13:11.976Z,95046.15
2018-07-21T20:15:48.352Z,95052.56
2018-07-21T20:18:18.107Z,95052.77
2018-07-21T20:20:47.963Z,95048.73
2018-07-21T20:23:17.763Z,95050.30
2018-07-21T20:25:47.535Z,95051.88
2018-07-21T20:28:17.406Z,95047.02
2018-07-21T20:30:47.211Z,95043.21
2018-07-21T20:33:17.015Z,95040.54
2018-07-21T20:35:46.843Z,95037.77
2018-07-21T20:38:16.732Z,95036.63
2018-07-21T20:40:46.676Z,95029.83
2018-07-21T20:43:16.723Z,95026.86
2018-07-21T20:45:46.728Z,95021.52
2018-07-21T20:48:16.648Z,95023.11
2018-07-21T20:50:46.560Z,95025.66
2018-07-21T20:53:16.491Z,95020.06
2018-07-21T20:55:46.441Z,95023.80
2018-07-21T20:58:16.388Z,95021.05
2018-07-21T21:00:46.348Z,95020.22
2018-07-21T21:03:16.189Z,95020.42
2018-07-21T21:05:45.959Z,95029.63
2018-07-21T21:08:15.894Z,95027.65
2018-07-21T21:10:45.800Z,95031.27
2018-07-21T21:13:15.995Z,95029.83
2018-07-21T21:15:46.007Z,95032.96
2018-07-21T21:18:15.887Z,95034.55
2018-07-21T21:20:45.888Z,95036.35
2018-07-21T21:23:15.863Z,95037.81
2018-07-21T21:25:45.683Z,95035.76
2018-07-21T21:28:15.493Z,95036.80
2018-07-21T21:30:48.117Z,95036.52
2018-07-21T21:33:18.076Z,95036.89
2018-07-21T21:35:47.961Z,95035.90
2018-07-21T21:38:17.933Z,95033.01
2018-07-21T21:40:48.016Z,95033.02
2018-07-21T21:43:18.335Z,95040.97
2018-07-21T21:45:48.180Z,95039.06
2018-07-21T21:48:18.158Z,95039.94
2018-07-21T21:50:48.017Z,95047.60
2018-07-21T21:53:17.771Z,95049.33
2018-07-21T21:55:47.815Z,95048.81
2018-07-21T21:58:17.659Z,95049.61
2018-07-21T22:01:10.103Z,95045.97
2018-07-21T22:03:39.962Z,95041.48
2018-07-21T22:06:09.823Z,95041.88
2018-07-21T22:08:39.832Z,95042.71
2018-07-21T22:11:09.746Z,95041.75
2018-07-21T22:13:39.760Z,95039.90
2018-07-21T22:16:09.676Z,95037.48
2018-07-21T22:18:39.424Z,95041.09
2018-07-21T22:21:09.308Z,95044.95
2018-07-21T22:23:39.148Z,95042.45
2018-07-21T22:26:09.031Z,95046.06
2018-07-21T22:28:39.041Z,95041.99
2018-07-21T22:31:08.932Z,95040.23
2018-07-21T22:33:38.843Z,95039.80
2018-07-21T22:36:08.784Z,95034.41
2018-07-21T22:38:38.607Z,95035.68
2018-07-21T22:41:08.488Z,95034.46
2018-07-21T22:43:38.364Z,95040.72
2018-07-21T22:46:08.297Z,95039.67
2018-07-21T22:48:38.259Z,95039.72
2018-07-21T22:51:08.133Z,95041.24
2018-07-21T22:53:38.070Z,95031.89
2018-07-21T22:56:08.254Z,95042.80
2018-07-21T22:58:38.226Z,95045.98
2018-07-21T23:01:08.434Z,95040.95
2018-07-21T23:03:38.663Z,95029.44
2018-07-21T23:06:08.864Z,95028.77
2018-07-21T23:08:38.848Z,95042.38
2018-07-21T23:11:08.852Z,95037.64
2018-07-21T23:13:38.832Z,95030.42
2018-07-21T23:16:08.863Z,95019.38
2018-07-21T23:18:38.980Z,95022.41
2018-07-21T23:21:09.954Z,95019.52
2018-07-21T23:23:39.927Z,95015.24
2018-07-21T23:26:09.927Z,95015.77
2018-07-21T23:28:39.815Z,95024.83
2018-07-21T23:31:09.819Z,95023.59
2018-07-21T23:33:39.784Z,95022.55
2018-07-21T23:36:09.668Z,95020.94
2018-07-21T23:38:39.716Z,95023.07
2018-07-21T23:41:09.740Z,95020.41
2018-07-21T23:43:39.759Z,95026.56
2018-07-21T23:46:09.815Z,95016.80
2018-07-21T23:48:39.747Z,95018.92
2018-07-21T23:51:09.756Z,95029.54
2018-07-21T23:53:39.696Z,95025.79
2018-07-21T23:56:09.875Z,95023.13
2018-07-21T23:58:39.744Z,95019.81
